• Join FlightAware (Why Join?)
  • Login
  • US Flag 
02:16AM EDT


 

Airport Tracker/Info


-or-


 

Live Flight TrackerFlight Track Log ✈ N36638 ✈ 28-Apr-2013 ✈ KAGS - KFFC

Flight Track Log - Related Links

Times and Time Zones

All times are in EDT time to prevent confusion due to time zone crossing. See the N36638 flight status page for this flight to view local times or setup timezone preferences in your user account.

Time Position Orientation Groundspeed Altitude Reporting Facility
EDT Latitude Longitude Course Direction KTS MPH feet Rate Location/Type
03:50PM 33.3717 -82.4714 270° West  Level Estimated
03:51PM 33.3718 -82.5277 270° West  Level Estimated
03:52PM 33.3719 -82.5840 270° West  Level Estimated
03:53PM 33.3719 -82.6404 270° West  Level Estimated
03:54PM 33.3719 -82.6967 270° West  Level Estimated
03:55PM 33.3718 -82.7530 270° West  Level Estimated
03:56PM 33.3718 -82.8093 270° West  Level Estimated
03:57PM 33.3717 -82.8656 270° West  Level Estimated
03:58PM 33.3716 -82.9220 270° West  Level Estimated
03:59PM 33.3715 -82.9783 270° West  Level Estimated
03:59PM 33.1000 -82.6667 270° West 148 170 4,000  Level Atlanta TRACON
04:00PM 33.3713 -83.0346 270° West  Level Estimated
04:00PM 33.0833 -82.7000 239° Southwest 141 162 4,200  Level Atlanta TRACON
04:01PM 33.3711 -83.0909 270° West  Level Estimated
04:01PM 33.0667 -82.7500 248° West 142 163 4,100  Level Atlanta TRACON
04:02PM 33.3709 -83.1472 270° West  Level Estimated
04:02PM 33.0333 -82.8000 232° Southwest 143 165 4,100  Level Atlanta TRACON
04:03PM 33.3707 -83.2036 270° West  Level Estimated
04:03PM 33.0167 -82.8333 239° Southwest 142 163 4,100  Level Atlanta TRACON
04:04PM 33.3704 -83.2599 270° West  Level Estimated
04:04PM 33.0000 -82.8833 248° West 142 163 4,200  Level Atlanta TRACON
04:05PM 33.3702 -83.3162 270° West  Level Estimated
04:05PM 32.9833 -82.9333 248° West 144 166 4,100  Level Atlanta TRACON
04:06PM 32.9667 -82.9667 239° Southwest 142 163 4,200  Climbing Atlanta TRACON
04:07PM 32.9500 -83.0167 248° West 144 166 4,100  Descending Atlanta TRACON
04:08PM 32.9333 -83.0500 239° Southwest 143 165 4,200  Climbing Atlanta TRACON
04:09PM 32.9167 -83.1000 248° West 143 165 4,100 -60 Descending Atlanta TRACON
04:10PM 32.9000 -83.1333 239° Southwest 145 167 4,100  Level Atlanta TRACON
04:11PM 32.9000 -83.1833 270° West 146 168 4,100  Level Atlanta TRACON
04:12PM 32.9000 -83.2333 270° West 142 163 4,100  Level Atlanta TRACON
04:13PM 32.9167 -83.2833 292° West 146 168 4,100 -60 Level Atlanta TRACON
04:14PM 32.9333 -83.3333 292° West 151 174 4,000 -60 Descending Atlanta TRACON
04:15PM 32.9333 -83.3833 270° West 150 173 4,000  Level Atlanta TRACON
04:16PM 32.9500 -83.4167 301° West 147 169 4,000  Level Atlanta TRACON
04:17PM 32.9667 -83.4667 292° West 150 173 4,000  Level Atlanta TRACON
04:18PM 32.9833 -83.5167 292° West 156 180 4,000 -240 Level Atlanta TRACON
04:19PM 33.0000 -83.5667 292° West 154 177 3,600 -420 Descending Atlanta TRACON
04:20PM 33.0000 -83.6167 270° West 163 188 3,200 -300 Descending Atlanta TRACON
04:21PM 33.0000 -83.6667 270° West 158 182 3,000 -120 Descending Atlanta TRACON
04:22PM 33.0000 -83.7167 270° West 151 174 3,000 -60 Level Atlanta TRACON
04:23PM 33.0167 -83.7667 292° West 154 177 2,900  Descending Atlanta TRACON
04:24PM 33.0333 -83.8167 292° West 150 173 3,000  Climbing Atlanta TRACON
04:25PM 33.0333 -83.8667 270° West 155 178 3,000  Level Atlanta TRACON
04:26PM 33.0667 -83.9167 309° West 153 176 3,000  Level Atlanta TRACON
04:27PM 33.0667 -83.9667 270° West 149 171 3,000  Level Atlanta TRACON
04:28PM 33.0667 -84.0000 270° West 152 175 3,000 -60 Level Atlanta TRACON
04:29PM 33.0667 -84.0500 270° West 156 180 2,900 -60 Descending Atlanta TRACON
04:30PM 33.0833 -84.1000 292° West 150 173 2,900  Level Atlanta TRACON
04:31PM 33.0833 -84.1500 270° West 150 173 2,900  Level Atlanta TRACON
04:32PM 33.1167 -84.2000 309° West 156 180 3,000  Climbing Atlanta TRACON
04:33PM 33.1333 -84.2333 301° West 147 169 3,000  Level Atlanta TRACON
04:34PM 33.1500 -84.2667 301° West 140 161 3,000  Level Atlanta TRACON
04:35PM 33.1833 -84.3167 309° West 142 163 3,100  Climbing Atlanta TRACON
04:36PM 33.2000 -84.3500 301° West 140 161 3,000 -240 Descending Atlanta TRACON
04:37PM 33.2333 -84.3833 320° Northwest 147 169 2,700 -300 Descending Atlanta TRACON
04:38PM 33.2667 -84.4167 320° Northwest 143 165 2,400 -120 Descending Atlanta TRACON
04:39PM 33.2833 -84.4500 301° West 146 168 2,500 -180 Climbing Atlanta TRACON
04:40PM 33.3000 -84.4833 301° West 146 168 2,100 -480 Descending Atlanta TRACON